Time;durP1;ratioP1;P1;durP2;ratioP2;P2;SDS_P1;SDS_P2;PMS_P1;PMS_P2;Temp;Humidity;BMP_temperature;BMP_pressure;BME280_temperature;BME280_humidity;BME280_pressure;Samples;Min_cycle;Max_cycle;Signal;HPM_P1;HPM_P2
2022/12/20 00:01:50;;;;;;;;;11.00;8.50;;;;;11.29;70.50;100866.53;5035853;28;45282;-57
2022/12/20 00:04:15;;;;;;;;;11.75;9.00;;;;;11.28;71.06;100869.47;5034174;28;45426;-58
2022/12/20 00:06:41;;;;;;;;;14.25;10.00;;;;;11.26;70.88;100869.69;5035086;28;45412;-56
2022/12/20 00:09:07;;;;;;;;;14.00;12.75;;;;;11.27;70.73;100870.53;5035696;28;45361;-54
2022/12/20 00:11:32;;;;;;;;;8.00;8.00;;;;;11.26;70.80;100869.69;5035381;28;45667;-56
2022/12/20 00:13:58;;;;;;;;;9.00;8.00;;;;;11.27;71.09;100862.28;5035213;28;46442;-57
2022/12/20 00:16:25;;;;;;;;;9.00;9.00;;;;;11.23;71.04;100854.50;5034921;28;45317;-57
2022/12/20 00:18:59;;;;;;;;;2.00;0.20;;;;;11.22;71.04;100849.22;5032723;28;45380;-58
2022/12/20 00:21:24;;;;;;;;;10.60;8.60;;;;;11.22;71.27;100844.53;5035117;28;45395;-53
2022/12/20 00:23:51;;;;;;;;;8.75;6.50;;;;;11.08;71.04;100821.75;5034674;28;45414;-55
2022/12/20 00:26:19;;;;;;;;;9.20;8.20;;;;;11.16;70.99;100834.41;5034945;28;45313;-57
2022/12/20 00:28:45;;;;;;;;;7.80;5.80;;;;;11.08;70.98;100832.75;5016999;28;45273;-57
2022/12/20 00:31:15;;;;;;;;;8.75;7.00;;;;;11.10;71.29;100847.09;5035395;28;45327;-57
2022/12/20 00:33:44;;;;;;;;;7.80;7.00;;;;;11.02;71.24;100838.22;5034479;28;45456;-55
2022/12/20 00:36:09;;;;;;;;;11.20;8.40;;;;;10.83;70.81;100802.31;5033600;28;45460;-56
2022/12/20 00:38:35;;;;;;;;;10.25;8.25;;;;;10.93;71.46;100816.47;5034996;28;45497;-56
2022/12/20 00:41:10;;;;;;;;;9.00;8.00;;;;;11.07;71.32;100835.69;5034801;28;45643;-56
2022/12/20 00:43:36;;;;;;;;;7.20;7.20;;;;;10.81;71.06;100793.47;5033438;28;46621;-57
2022/12/20 00:46:02;;;;;;;;;8.60;8.40;;;;;11.07;71.33;100832.94;5034418;28;45316;-54
2022/12/20 00:48:28;;;;;;;;;7.60;7.60;;;;;10.71;71.26;100774.69;5033640;28;45427;-56
2022/12/20 00:51:03;;;;;;;;;7.75;7.75;;;;;11.07;71.39;100827.44;5000091;28;45507;-57
2022/12/20 00:53:29;;;;;;;;;8.00;8.00;;;;;10.84;71.45;100780.16;5033078;28;45440;-59
2022/12/20 00:55:55;;;;;;;;;8.50;6.50;;;;;11.07;71.12;100816.47;5033065;28;45462;-55
2022/12/20 00:58:20;;;;;;;;;8.75;5.25;;;;;11.05;71.04;100818.59;5034779;28;45401;-56
2022/12/20 01:00:46;;;;;;;;;7.25;7.00;;;;;11.04;71.46;100812.25;5034823;28;45204;-58
2022/12/20 01:03:11;;;;;;;;;8.25;7.00;;;;;11.10;71.08;100818.81;5034613;28;45592;-58
2022/12/20 01:05:38;;;;;;;;;11.00;9.25;;;;;11.11;71.44;100824.06;5034755;28;45167;-59
2022/12/20 01:08:04;;;;;;;;;5.60;4.20;;;;;11.10;70.95;100818.81;5033040;28;45809;-60
2022/12/20 01:10:29;;;;;;;;;4.00;4.00;;;;;11.10;71.12;100821.56;5034992;28;45408;-59
2022/12/20 01:12:55;;;;;;;;;9.25;7.50;;;;;11.08;70.97;100809.91;5034094;28;46217;-59
2022/12/20 01:15:20;;;;;;;;;8.75;7.00;;;;;11.08;71.53;100801.66;5034511;28;45437;-59
2022/12/20 01:17:46;;;;;;;;;5.00;5.00;;;;;10.94;70.83;100779.72;5033182;28;45443;-58
2022/12/20 01:20:12;;;;;;;;;9.25;6.00;;;;;11.15;70.90;100809.91;5033085;28;45972;-54
2022/12/20 01:22:37;;;;;;;;;7.00;7.00;;;;;11.13;70.87;100818.38;5034161;28;46317;-53
2022/12/20 01:25:03;;;;;;;;;8.25;7.00;;;;;11.16;71.00;100819.84;5032619;28;45352;-56
2022/12/20 01:27:29;;;;;;;;;8.25;8.00;;;;;11.15;71.19;100810.75;5034505;28;45394;-57
2022/12/20 01:29:54;;;;;;;;;8.25;7.50;;;;;10.70;71.23;100748.28;5035254;28;45350;-57
2022/12/20 01:32:20;;;;;;;;;9.00;8.50;;;;;11.16;71.17;100808.84;5037234;28;45856;-57
2022/12/20 01:34:45;;;;;;;;;7.00;7.00;;;;;11.19;71.33;100808.41;5037841;28;45366;-56
2022/12/20 01:37:11;;;;;;;;;6.00;6.00;;;;;11.18;71.56;100803.97;5037526;28;45794;-58
2022/12/20 01:39:37;;;;;;;;;8.25;6.50;;;;;11.07;71.31;100778.00;5038296;28;45373;-59
2022/12/20 01:42:03;;;;;;;;;9.60;8.00;;;;;11.14;71.28;100800.81;5037156;28;47916;-56
2022/12/20 01:44:29;;;;;;;;;4.00;4.00;;;;;11.21;71.85;100811.81;5036407;28;45334;-54
2022/12/20 01:46:55;;;;;;;;;7.00;7.00;;;;;11.02;71.33;100764.06;5037924;28;45535;-55
2022/12/20 01:49:35;;;;;;;;;9.00;6.00;;;;;11.18;71.31;100798.47;5036356;28;45425;-58
2022/12/20 01:52:09;;;;;;;;;7.00;7.00;;;;;11.20;71.21;100810.13;5037291;28;45724;-54
2022/12/20 01:54:40;;;;;;;;;7.00;5.00;;;;;11.13;71.45;100796.38;5037833;28;45355;-59
2022/12/20 01:57:07;;;;;;;;;9.00;9.00;;;;;11.19;71.16;100803.78;5036530;28;45515;-56
2022/12/20 01:59:34;;;;;;;;;7.20;7.20;;;;;10.88;71.18;100747.63;5036301;28;45561;-53
2022/12/20 02:02:01;;;;;;;;;9.00;5.60;;;;;11.02;71.44;100769.56;5036490;28;46594;-58
2022/12/20 02:04:27;;;;;;;;;7.60;7.20;;;;;11.12;70.76;100780.97;5035796;28;45341;-58
2022/12/20 02:06:52;;;;;;;;;8.50;7.00;;;;;11.19;71.67;100798.28;5037767;28;45381;-57
2022/12/20 02:09:18;;;;;;;;;9.00;9.00;;;;;11.22;70.96;100797.00;5037665;28;45340;-58
2022/12/20 02:12:02;;;;;;;;;5.00;5.00;;;;;11.22;70.64;100817.06;5037329;28;45413;-58
2022/12/20 02:14:52;;;;;;;;;7.60;7.00;;;;;11.22;70.94;100808.81;5037313;28;45508;-58
2022/12/20 02:17:21;;;;;;;;;9.40;8.40;;;;;11.00;70.56;100775.28;5037508;28;45361;-55
2022/12/20 02:20:17;;;;;;;;;7.20;7.20;;;;;11.25;70.64;100797.41;5035762;28;45408;-58
2022/12/20 02:22:57;;;;;;;;;9.80;8.80;;;;;11.25;70.63;100804.81;5037063;28;46464;-57
2022/12/20 02:25:35;;;;;;;;;8.00;8.00;;;;;11.21;70.88;100796.16;5035935;28;45660;-57
2022/12/20 02:28:07;;;;;;;;;5.80;5.80;;;;;11.16;70.70;100798.69;5037431;28;45361;-57
2022/12/20 02:30:34;;;;;;;;;8.20;7.40;;;;;10.95;70.38;100767.66;5036380;28;45510;-56
2022/12/20 02:33:02;;;;;;;;;7.40;6.60;;;;;11.19;70.50;100806.50;5035675;28;45766;-55
2022/12/20 02:35:30;;;;;;;;;8.60;5.00;;;;;11.07;70.73;100784.38;5035523;28;46342;-57
2022/12/20 02:37:57;;;;;;;;;10.20;7.60;;;;;10.85;70.86;100748.88;5015547;28;45842;-61
2022/12/20 02:40:27;;;;;;;;;6.60;5.00;;;;;11.12;71.08;100794.69;5053056;28;45518;-59
2022/12/20 02:42:56;;;;;;;;;5.40;5.40;;;;;11.10;70.70;100789.41;5038640;28;46563;-57
2022/12/20 02:45:23;;;;;;;;;4.60;4.00;;;;;11.06;70.51;100787.31;5055671;28;45337;-55
2022/12/20 02:47:52;;;;;;;;;7.00;7.00;;;;;10.98;70.74;100774.66;5038726;28;45386;-57
2022/12/20 02:50:21;;;;;;;;;6.60;6.60;;;;;10.97;70.92;100790.28;5055693;28;45634;-58
2022/12/20 02:52:47;;;;;;;;;5.40;5.00;;;;;11.03;70.95;100777.59;5038561;28;47353;-58
2022/12/20 02:55:12;;;;;;;;;8.00;8.00;;;;;10.87;70.67;100745.94;5055231;28;45492;-57
2022/12/20 02:57:47;;;;;;;;;7.00;7.00;;;;;10.98;71.00;100764.50;5038901;28;45336;-52
2022/12/20 03:00:15;;;;;;;;;6.40;5.20;;;;;10.97;70.57;100764.72;5055557;28;45504;-58
2022/12/20 03:05:25;;;;;;;;;7.80;6.60;;;;;10.90;71.08;100759.25;5041132;28;45418;-57
2022/12/20 03:07:51;;;;;;;;;9.00;9.00;;;;;10.89;70.96;100756.72;5038595;28;45317;-58
2022/12/20 03:10:16;;;;;;;;;4.25;4.25;;;;;10.71;70.80;100726.13;5055199;28;45717;-56
2022/12/20 03:12:42;;;;;;;;;9.25;8.75;;;;;10.87;71.11;100751.44;5056374;28;45371;-56
2022/12/20 03:15:08;;;;;;;;;6.75;6.75;;;;;10.87;71.03;100747.84;5055974;28;45259;-57
2022/12/20 03:17:34;;;;;;;;;7.00;4.25;;;;;10.86;70.87;100741.50;5051942;28;45398;-58
2022/12/20 03:19:59;;;;;;;;;9.50;5.75;;;;;10.87;70.60;100750.59;5036216;28;45379;-58
2022/12/20 03:22:25;;;;;;;;;5.00;4.25;;;;;10.81;70.82;100744.91;5034419;28;45968;-58
2022/12/20 03:24:51;;;;;;;;;7.20;4.20;;;;;10.83;70.35;100752.91;5036096;28;45395;-58
2022/12/20 03:27:17;;;;;;;;;11.00;8.25;;;;;10.89;70.79;100756.72;5035789;28;45385;-56
2022/12/20 03:29:44;;;;;;;;;5.25;5.25;;;;;10.86;69.99;100749.75;5036550;28;45344;-59
2022/12/20 03:32:10;;;;;;;;;9.20;7.80;;;;;10.72;70.59;100715.97;5035628;28;45384;-54
2022/12/20 03:34:35;;;;;;;;;7.00;7.00;;;;;10.88;70.43;100731.16;5035764;28;45352;-55
2022/12/20 03:37:01;;;;;;;;;7.25;7.25;;;;;10.89;70.00;100732.00;5035962;28;45374;-57
2022/12/20 03:39:27;;;;;;;;;10.25;8.75;;;;;10.88;70.01;100741.31;5035997;28;45584;-56
2022/12/20 03:41:52;;;;;;;;;8.00;7.00;;;;;10.88;70.37;100744.06;5035508;28;46268;-58
2022/12/20 03:44:18;;;;;;;;;10.00;8.75;;;;;10.83;70.60;100745.53;5035532;28;45306;-58
2022/12/20 03:46:43;;;;;;;;;8.25;6.75;;;;;10.85;69.81;100737.09;5034842;28;45479;-58
2022/12/20 03:49:09;;;;;;;;;7.75;7.75;;;;;10.88;69.81;100744.88;5035768;28;45449;-58
2022/12/20 03:51:34;;;;;;;;;8.75;7.50;;;;;10.88;69.64;100752.28;5035480;28;45402;-57
2022/12/20 03:54:00;;;;;;;;;8.00;5.50;;;;;10.88;69.74;100744.88;5035689;28;45277;-58
2022/12/20 03:56:25;;;;;;;;;10.25;9.00;;;;;10.88;70.19;100746.78;5035418;28;45260;-56
2022/12/20 03:58:51;;;;;;;;;4.00;4.00;;;;;10.87;70.04;100737.69;5036105;28;45438;-56
2022/12/20 04:01:24;;;;;;;;;5.75;5.75;;;;;10.88;70.07;100741.31;5035064;28;45897;-57
2022/12/20 04:03:50;;;;;;;;;4.40;4.40;;;;;10.66;70.18;100711.31;5034529;28;45417;-58
2022/12/20 04:06:15;;;;;;;;;8.75;7.00;;;;;10.87;70.32;100740.44;5035417;28;45420;-53
2022/12/20 04:08:41;;;;;;;;;7.00;7.00;;;;;10.88;70.23;100730.31;5035829;28;45292;-57
2022/12/20 04:11:15;;;;;;;;;6.75;5.25;;;;;10.81;70.06;100731.19;5035290;28;45710;-53
2022/12/20 04:13:48;;;;;;;;;5.80;5.80;;;;;10.86;69.83;100719.53;5034171;28;45466;-58
2022/12/20 04:16:15;;;;;;;;;7.00;5.00;;;;;10.81;69.55;100711.97;5006995;28;45694;-58
2022/12/20 04:18:40;;;;;;;;;3.00;3.00;;;;;10.78;69.99;100709.63;5035294;28;45417;-56
2022/12/20 04:21:06;;;;;;;;;6.00;6.00;;;;;10.83;70.27;100709.84;5033453;28;45902;-57
2022/12/20 04:23:33;;;;;;;;;5.00;4.50;;;;;10.84;69.59;100714.25;5033518;28;45396;-58
2022/12/20 04:25:59;;;;;;;;;4.20;4.20;;;;;10.85;69.75;100698.63;5034171;28;45361;-58
2022/12/20 04:28:24;;;;;;;;;8.60;6.00;;;;;10.82;69.68;100693.56;5035112;28;45338;-60
2022/12/20 04:30:50;;;;;;;;;6.00;6.00;;;;;10.79;69.38;100689.34;5035086;28;45355;-58
2022/12/20 04:33:15;;;;;;;;;8.00;7.75;;;;;10.86;69.37;100683.84;5035039;28;45275;-59
2022/12/20 04:35:41;;;;;;;;;4.00;4.00;;;;;10.83;69.31;100687.88;5034829;28;45403;-58
2022/12/20 04:38:06;;;;;;;;;5.25;5.25;;;;;10.87;69.56;100691.03;5035109;28;45302;-60
2022/12/20 04:40:32;;;;;;;;;5.25;4.25;;;;;10.85;69.05;100690.41;5034336;28;46171;-55
2022/12/20 04:42:57;;;;;;;;;5.50;5.00;;;;;10.71;69.75;100671.22;5035058;28;45283;-56
2022/12/20 04:45:23;;;;;;;;;4.00;4.00;;;;;10.87;69.68;100696.50;5035151;28;45769;-58
2022/12/20 04:47:48;;;;;;;;;7.00;7.00;;;;;10.89;69.39;100691.66;5035310;28;45459;-58
2022/12/20 04:50:15;;;;;;;;;7.40;6.20;;;;;10.87;69.36;100688.28;5034282;28;46395;-58
2022/12/20 04:55:24;;;;;;;;;4.00;4.00;;;;;10.72;68.80;100655.56;5034736;28;45346;-61
2022/12/20 04:57:50;;;;;;;;;2.75;2.75;;;;;10.91;68.99;100688.69;5034805;28;45440;-59
2022/12/20 05:00:16;;;;;;;;;3.75;3.75;;;;;10.91;68.85;100689.53;5034391;28;45444;-59
2022/12/20 05:02:41;;;;;;;;;5.25;3.50;;;;;10.74;68.50;100656.22;5033293;28;45438;-60
2022/12/20 05:05:07;;;;;;;;;4.25;4.25;;;;;10.84;69.18;100669.50;5039344;28;45511;-59
2022/12/20 05:07:32;;;;;;;;;4.50;3.00;;;;;10.95;69.08;100682.53;5041763;28;45450;-55
2022/12/20 05:09:58;;;;;;;;;5.50;3.75;;;;;11.04;68.82;100680.41;5041091;28;46671;-55
2022/12/20 05:12:23;;;;;;;;;3.00;3.00;;;;;10.88;68.90;100643.28;5041185;28;45692;-55
2022/12/20 05:14:49;;;;;;;;;3.50;3.00;;;;;11.07;68.58;100673.63;5041044;28;45310;-57
2022/12/20 05:17:14;;;;;;;;;4.25;2.50;;;;;11.08;68.47;100664.34;5034074;28;45570;-58
2022/12/20 05:19:40;;;;;;;;;3.00;3.00;;;;;11.08;68.31;100672.56;5037715;28;45941;-58
2022/12/20 05:27:33;;;;;;;;;2.40;2.00;;;;;11.11;68.17;100659.25;5041398;28;45420;-58
2022/12/20 05:29:59;;;;;;;;;5.25;3.00;;;;;11.13;68.36;100667.28;5040673;28;45856;-58
2022/12/20 05:32:24;;;;;;;;;2.00;2.00;;;;;11.15;68.23;100662.41;5039560;28;45330;-58
2022/12/20 05:34:50;;;;;;;;;3.75;2.00;;;;;11.17;68.30;100652.06;5041045;28;45355;-59
2022/12/20 05:37:15;;;;;;;;;1.75;1.25;;;;;11.16;67.93;100655.00;5039959;28;45556;-57
2022/12/20 05:39:41;;;;;;;;;3.00;3.00;;;;;10.83;68.48;100611.00;5040828;28;46164;-57
2022/12/20 05:42:06;;;;;;;;;2.00;2.00;;;;;10.67;68.55;100584.84;5039298;28;45433;-53
2022/12/20 05:44:32;;;;;;;;;5.50;3.25;;;;;11.23;68.40;100678.66;5040821;28;45529;-56
2022/12/20 05:46:57;;;;;;;;;3.00;1.75;;;;;11.21;68.53;100666.19;5041159;28;45645;-57
2022/12/20 05:49:23;;;;;;;;;1.75;1.00;;;;;11.28;68.08;100666.16;5040418;28;46170;-57
2022/12/20 05:51:48;;;;;;;;;3.00;2.00;;;;;11.18;68.67;100639.16;5040660;28;45278;-57
2022/12/20 05:54:14;;;;;;;;;1.50;1.00;;;;;11.29;68.47;100654.97;5039165;28;45540;-58
2022/12/20 05:56:39;;;;;;;;;4.50;2.00;;;;;11.11;68.16;100629.03;5041100;28;45357;-58
2022/12/20 05:59:05;;;;;;;;;2.00;1.25;;;;;11.31;68.26;100668.47;5040097;28;45942;-58
2022/12/20 06:01:30;;;;;;;;;2.25;2.25;;;;;11.32;67.83;100649.00;5040476;28;45308;-58
2022/12/20 06:03:56;;;;;;;;;3.50;2.00;;;;;11.31;68.13;100655.56;5040847;28;45397;-58
2022/12/20 06:06:21;;;;;;;;;1.00;1.00;;;;;11.33;68.14;100656.22;5040720;28;45404;-57
2022/12/20 06:08:47;;;;;;;;;4.50;4.50;;;;;11.33;67.76;100655.34;5040398;28;46584;-53
2022/12/20 06:11:12;;;;;;;;;1.75;1.75;;;;;11.31;68.21;100660.25;5040270;28;45409;-55
2022/12/20 06:13:38;;;;;;;;;4.00;3.00;;;;;11.36;67.73;100658.50;5039320;28;45436;-57
2022/12/20 06:16:03;;;;;;;;;3.00;2.00;;;;;11.36;67.86;100666.75;5037723;28;45551;-57
2022/12/20 06:18:29;;;;;;;;;3.00;2.00;;;;;11.40;67.74;100672.66;5036638;28;45362;-57
2022/12/20 06:20:54;;;;;;;;;2.50;2.00;;;;;11.39;67.54;100670.97;5019060;28;45325;-58
2022/12/20 06:23:20;;;;;;;;;3.00;3.00;;;;;11.15;67.79;100632.19;5037041;28;45277;-58
2022/12/20 06:25:46;;;;;;;;;4.25;3.00;;;;;11.41;67.82;100668.84;5037345;28;45527;-61
2022/12/20 06:28:11;;;;;;;;;2.00;2.00;;;;;11.40;67.50;100672.66;5036448;28;45651;-58
2022/12/20 06:30:37;;;;;;;;;3.75;2.75;;;;;11.09;67.65;100625.69;5037193;28;45374;-57
2022/12/20 06:33:02;;;;;;;;;1.75;1.75;;;;;11.44;68.09;100670.31;5037171;28;45226;-55
2022/12/20 06:35:28;;;;;;;;;1.75;1.75;;;;;11.46;67.70;100669.03;5035867;28;45180;-54
2022/12/20 06:37:54;;;;;;;;;2.25;2.00;;;;;11.43;67.55;100664.00;5036928;28;45640;-56
2022/12/20 06:40:19;;;;;;;;;1.00;1.00;;;;;11.45;67.35;100670.09;5035369;28;45415;-58
2022/12/20 06:42:45;;;;;;;;;4.00;2.75;;;;;11.46;67.60;100657.19;5036487;28;45393;-58
2022/12/20 06:45:10;;;;;;;;;3.00;3.00;;;;;11.25;67.48;100632.56;5037127;28;45646;-59
2022/12/20 06:47:36;;;;;;;;;2.00;2.00;;;;;11.51;67.43;100660.13;5035082;28;46021;-60
2022/12/20 06:50:03;;;;;;;;;4.00;2.00;;;;;11.47;67.76;100651.47;5036463;28;45501;-58
2022/12/20 06:52:28;;;;;;;;;2.40;2.40;;;;;11.48;68.00;100647.66;5018770;28;45401;-57
2022/12/20 06:54:54;;;;;;;;;2.00;2.00;;;;;11.52;67.91;100659.91;5035321;28;45737;-59
2022/12/20 06:57:19;;;;;;;;;2.00;2.00;;;;;11.54;67.78;100656.94;5036308;28;45304;-56
2022/12/20 06:59:45;;;;;;;;;1.00;1.00;;;;;11.57;67.63;100650.16;5034922;28;45576;-56
2022/12/20 07:02:11;;;;;;;;;3.25;3.25;;;;;11.37;67.70;100624.47;5036530;28;45333;-58
2022/12/20 07:04:36;;;;;;;;;1.00;1.00;;;;;11.39;67.59;100636.06;5035264;28;45546;-58
2022/12/20 07:07:02;;;;;;;;;1.25;1.25;;;;;11.56;67.63;100660.31;5036245;28;46671;-58
2022/12/20 07:09:28;;;;;;;;;2.40;2.40;;;;;11.36;67.76;100635.66;5036219;28;45421;-59
2022/12/20 07:11:54;;;;;;;;;3.20;2.60;;;;;11.57;67.47;100667.47;5036533;28;45678;-58
2022/12/20 07:14:20;;;;;;;;;1.40;1.40;;;;;11.59;67.61;100659.84;5036454;28;45434;-60
2022/12/20 07:16:45;;;;;;;;;2.50;2.00;;;;;11.60;67.47;100666.19;5035972;28;46174;-59
2022/12/20 07:19:12;;;;;;;;;1.00;1.00;;;;;11.55;67.34;100655.88;5035910;28;45425;-55
2022/12/20 07:21:37;;;;;;;;;2.00;2.00;;;;;11.57;67.37;100655.66;5035897;28;45467;-54
2022/12/20 07:24:03;;;;;;;;;2.00;2.00;;;;;11.59;67.72;100659.03;5036331;28;45363;-56
2022/12/20 07:26:28;;;;;;;;;3.00;1.00;;;;;11.63;67.61;100663.03;5035956;28;46862;-57
2022/12/20 07:28:54;;;;;;;;;1.75;1.75;;;;;11.65;66.95;100658.13;5035434;28;45467;-56
2022/12/20 07:31:19;;;;;;;;;3.00;3.00;;;;;11.64;67.31;100661.97;5036125;28;45270;-58
2022/12/20 07:33:45;;;;;;;;;2.50;2.00;;;;;11.65;67.54;100658.13;5035970;28;45686;-59
2022/12/20 07:36:11;;;;;;;;;4.25;3.00;;;;;11.65;66.96;100656.22;5035859;28;46165;-59
2022/12/20 07:38:37;;;;;;;;;1.60;1.60;;;;;11.68;67.01;100663.19;5017751;28;45326;-59
2022/12/20 07:41:07;;;;;;;;;4.00;2.75;;;;;11.63;66.98;100660.28;5034701;28;45293;-59
2022/12/20 07:43:33;;;;;;;;;3.00;3.00;;;;;11.70;67.19;100673.97;5035898;28;45531;-58
2022/12/20 07:45:59;;;;;;;;;2.00;2.00;;;;;11.68;66.83;100665.09;5035369;28;46678;-58
2022/12/20 07:48:24;;;;;;;;;3.00;3.00;;;;;11.70;67.24;100674.81;5034565;28;45371;-59
2022/12/20 07:50:51;;;;;;;;;2.00;2.00;;;;;11.31;66.59;100605.28;5035369;28;45353;-58
2022/12/20 07:53:17;;;;;;;;;3.00;3.00;;;;;11.71;66.96;100676.50;5034880;28;45615;-57
2022/12/20 07:55:43;;;;;;;;;4.00;2.75;;;;;11.73;66.94;100666.13;5035249;28;46568;-58
2022/12/20 07:58:08;;;;;;;;;1.00;1.00;;;;;11.44;66.86;100618.94;5035568;28;45234;-56
2022/12/20 08:00:34;;;;;;;;;2.00;2.00;;;;;11.73;66.72;100663.38;5035386;28;45280;-54
2022/12/20 08:03:11;;;;;;;;;2.80;2.80;;;;;11.65;66.87;100655.38;5035393;28;45463;-52
2022/12/20 08:05:37;;;;;;;;;3.20;2.00;;;;;11.71;66.74;100661.91;5034337;28;46743;-58
2022/12/20 08:08:03;;;;;;;;;2.60;2.40;;;;;11.68;66.55;100667.84;5033612;28;45408;-59
2022/12/20 08:10:29;;;;;;;;;3.25;2.50;;;;;11.74;66.57;100684.28;5008223;28;45613;-56
2022/12/20 08:12:54;;;;;;;;;1.75;1.00;;;;;11.73;66.71;100677.13;5017092;28;45666;-53
2022/12/20 08:15:21;;;;;;;;;4.75;2.00;;;;;11.74;66.54;100673.28;5035057;28;46273;-59
2022/12/20 08:17:48;;;;;;;;;1.40;1.40;;;;;11.76;66.25;100673.94;5033824;28;45513;-61
2022/12/20 08:20:14;;;;;;;;;1.00;1.00;;;;;11.57;66.13;100639.16;5034738;28;45194;-61
2022/12/20 08:22:39;;;;;;;;;3.00;1.00;;;;;11.84;65.99;100675.56;5035369;28;45549;-61
2022/12/20 08:25:06;;;;;;;;;3.50;3.50;;;;;11.59;66.33;100629.59;5034651;28;45415;-62
2022/12/20 08:27:32;;;;;;;;;1.20;1.20;;;;;11.85;66.15;100670.91;5034791;28;45490;-61
2022/12/20 08:29:58;;;;;;;;;3.60;1.60;;;;;11.77;66.02;100656.38;5034802;28;45430;-62
2022/12/20 08:32:23;;;;;;;;;2.00;2.00;;;;;11.85;66.12;100665.41;5035295;28;45432;-59
2022/12/20 08:34:49;;;;;;;;;2.00;2.00;;;;;11.82;65.83;100658.44;5034956;28;46287;-56
2022/12/20 08:37:18;;;;;;;;;1.25;1.25;;;;;11.80;66.23;100661.41;5034589;28;45345;-58
2022/12/20 08:39:43;;;;;;;;;1.20;1.20;;;;;11.74;65.90;100647.72;5032798;28;45285;-59
2022/12/20 08:42:09;;;;;;;;;2.00;2.00;;;;;11.79;65.66;100656.13;5034770;28;45232;-59
2022/12/20 08:44:35;;;;;;;;;1.00;1.00;;;;;11.87;65.83;100661.38;5033599;28;47353;-62
2022/12/20 08:47:00;;;;;;;;;2.25;1.25;;;;;11.85;66.00;100662.66;5035268;28;45476;-58
2022/12/20 08:49:26;;;;;;;;;2.00;2.00;;;;;11.88;65.88;100668.56;5034771;28;45463;-57
2022/12/20 08:51:51;;;;;;;;;2.50;2.50;;;;;11.86;65.91;100662.44;5033838;28;45326;-57
2022/12/20 08:54:17;;;;;;;;;2.25;2.25;;;;;11.65;65.59;100620.47;5034614;28;46032;-59
2022/12/20 08:56:42;;;;;;;;;2.50;2.50;;;;;11.75;65.67;100632.91;5034665;28;45487;-54
2022/12/20 08:59:08;;;;;;;;;2.00;2.00;;;;;11.86;65.62;100659.69;5035067;28;45400;-55
2022/12/20 09:01:33;;;;;;;;;3.75;2.25;;;;;11.87;65.77;100657.78;5034945;28;45451;-57
2022/12/20 09:03:59;;;;;;;;;3.50;2.00;;;;;11.95;65.68;100659.41;5035026;28;45943;-57
2022/12/20 09:06:25;;;;;;;;;3.00;2.50;;;;;11.96;65.70;100666.59;5034668;28;45229;-58
2022/12/20 09:08:50;;;;;;;;;1.00;1.00;;;;;11.92;65.81;100660.69;5034794;28;45342;-58
2022/12/20 09:11:18;;;;;;;;;2.00;2.00;;;;;11.95;66.09;100671.25;5038076;28;45333;-59
2022/12/20 09:13:44;;;;;;;;;3.20;2.80;;;;;11.70;66.13;100633.59;5052564;28;46623;-55
2022/12/20 09:16:11;;;;;;;;;1.80;1.80;;;;;11.93;66.84;100681.63;5053915;28;45319;-58
2022/12/20 09:18:37;;;;;;;;;4.20;2.60;;;;;11.93;67.06;100687.13;5048792;28;45417;-58
2022/12/20 09:21:04;;;;;;;;;2.00;2.00;;;;;11.95;67.31;100684.16;5003529;28;45361;-62
2022/12/20 09:23:30;;;;;;;;;2.80;2.80;;;;;11.93;67.48;100677.00;5052226;28;45701;-63
2022/12/20 09:26:00;;;;;;;;;2.00;2.00;;;;;11.75;68.11;100650.22;5054593;28;45297;-59
2022/12/20 09:28:25;;;;;;;;;1.20;1.20;;;;;11.91;68.79;100683.78;5035657;28;46001;-60
2022/12/20 09:30:50;;;;;;;;;3.00;2.00;;;;;11.85;68.91;100681.91;5054796;28;45372;-51
2022/12/20 09:33:16;;;;;;;;;3.00;2.00;;;;;11.84;69.84;100682.97;5043226;28;46105;-58
2022/12/20 09:35:45;;;;;;;;;2.50;2.25;;;;;11.83;69.67;100673.03;5048556;28;45508;-60
2022/12/20 09:38:11;;;;;;;;;2.60;1.80;;;;;11.80;70.04;100677.91;5048564;28;45564;-61
2022/12/20 09:40:37;;;;;;;;;2.00;2.00;;;;;11.78;70.43;100680.06;5048940;28;45583;-61
2022/12/20 09:43:03;;;;;;;;;3.40;3.40;;;;;11.77;71.06;100694.88;5049169;28;45434;-59
2022/12/20 09:45:31;;;;;;;;;4.60;2.00;;;;;11.71;71.84;100671.00;5049877;28;45378;-60
2022/12/20 09:47:57;;;;;;;;;4.00;4.00;;;;;11.45;72.43;100639.88;5032537;28;45793;-59
2022/12/20 09:50:34;;;;;;;;;4.00;2.25;;;;;11.68;72.43;100685.19;5051161;28;45616;-62
2022/12/20 09:53:32;;;;;;;;;3.00;3.00;;;;;11.66;72.90;100677.16;5034596;28;46515;-60
2022/12/20 09:56:02;;;;;;;;;4.80;4.00;;;;;11.69;73.33;100686.03;5052171;28;45428;-61
2022/12/20 09:58:43;;;;;;;;;9.60;5.60;;;;;11.64;74.06;100661.97;5052481;28;45463;-60
2022/12/20 10:01:35;;;;;;;;;4.00;3.20;;;;;11.61;74.44;100657.75;5052047;28;45586;-61
2022/12/20 10:04:14;;;;;;;;;3.40;2.60;;;;;11.59;74.50;100673.59;5049325;28;45891;-60
2022/12/20 10:06:51;;;;;;;;;4.80;4.00;;;;;11.55;74.86;100657.78;5052054;28;45507;-61
2022/12/20 10:09:47;;;;;;;;;2.40;2.40;;;;;11.60;75.03;100658.81;5052290;28;45357;-62
2022/12/20 10:12:27;;;;;;;;;4.00;2.60;;;;;11.62;75.03;100658.56;5053521;28;45924;-61
2022/12/20 10:14:55;;;;;;;;;3.40;3.40;;;;;11.65;75.72;100658.97;5051473;28;45441;-63
2022/12/20 10:17:30;;;;;;;;;3.00;3.00;;;;;11.63;75.44;100657.53;5052073;28;45504;-59
2022/12/20 10:20:33;;;;;;;;;4.60;3.00;;;;;11.64;75.53;100672.97;5036608;28;45942;-60
2022/12/20 10:23:22;;;;;;;;;4.20;3.40;;;;;11.63;75.61;100668.53;5048435;28;45809;-53
2022/12/20 10:25:53;;;;;;;;;4.00;2.40;;;;;11.59;75.57;100662.59;5047691;28;45682;-55
2022/12/20 10:28:18;;;;;;;;;4.40;4.20;;;;;11.62;75.56;100670.41;5050914;28;45388;-56
2022/12/20 10:30:44;;;;;;;;;5.00;3.00;;;;;11.63;75.73;100657.53;5034761;28;45447;-57
2022/12/20 10:33:18;;;;;;;;;6.50;4.00;;;;;11.66;75.91;100655.19;5041901;28;45823;-55
2022/12/20 10:35:44;;;;;;;;;3.20;3.20;;;;;11.62;75.69;100642.06;5051250;28;45897;-56
2022/12/20 10:38:11;;;;;;;;;5.00;4.20;;;;;11.66;76.11;100651.56;5051469;28;45509;-52
2022/12/20 10:40:39;;;;;;;;;5.80;5.80;;;;;11.66;76.21;100635.94;5031778;28;45667;-58
2022/12/20 10:43:05;;;;;;;;;4.00;4.00;;;;;11.56;76.28;100618.22;5030577;28;45419;-61
2022/12/20 10:45:38;;;;;;;;;3.80;3.20;;;;;11.49;75.92;100607.28;5037300;28;46393;-61
2022/12/20 10:48:05;;;;;;;;;6.80;3.60;;;;;11.68;76.03;100643.13;5067152;28;45611;-61
2022/12/20 10:50:31;;;;;;;;;4.60;4.00;;;;;11.69;75.81;100655.78;5011524;28;45433;-55
2022/12/20 10:53:09;;;;;;;;;4.00;4.00;;;;;11.43;75.68;100628.25;5048302;28;45444;-52
2022/12/20 10:55:39;;;;;;;;;3.20;3.00;;;;;11.60;75.79;100645.06;5031014;28;46543;-60
2022/12/20 10:58:15;;;;;;;;;4.00;4.00;;;;;11.62;75.34;100653.91;5029592;28;45839;-60
2022/12/20 11:00:40;;;;;;;;;4.00;4.00;;;;;11.59;76.30;100643.34;5046362;28;45765;-58
2022/12/20 11:03:15;;;;;;;;;9.00;3.25;;;;;11.61;76.28;100654.13;5050193;28;45376;-56
2022/12/20 11:05:55;;;;;;;;;4.80;3.00;;;;;11.59;76.57;100650.78;5049793;28;46561;-60
2022/12/20 11:08:23;;;;;;;;;3.20;3.20;;;;;11.60;76.46;100641.47;5051089;28;45484;-57
2022/12/20 11:10:48;;;;;;;;;4.00;4.00;;;;;11.61;76.54;100641.25;5051246;28;45509;-53
2022/12/20 11:13:28;;;;;;;;;4.50;3.25;;;;;11.51;76.18;100630.75;5050473;28;45532;-56
2022/12/20 11:15:55;;;;;;;;;4.60;3.60;;;;;11.59;76.47;100639.78;5051446;28;45921;-60
2022/12/20 11:18:49;;;;;;;;;4.60;3.00;;;;;11.57;76.67;100637.25;5049250;28;45605;-58
2022/12/20 11:21:24;;;;;;;;;8.20;7.40;;;;;11.35;75.93;100595.53;5051766;28;45691;-54
2022/12/20 11:23:55;;;;;;;;;4.00;4.00;;;;;11.42;76.46;100595.50;5050705;28;45677;-55
2022/12/20 11:26:37;;;;;;;;;5.80;3.60;;;;;11.71;76.14;100627.00;5049852;28;47356;-53
2022/12/20 11:29:21;;;;;;;;;5.40;5.40;;;;;11.78;75.55;100629.69;5031830;28;45455;-61
2022/12/20 11:32:05;;;;;;;;;4.20;4.20;;;;;11.38;75.47;100576.69;5051938;28;45515;-61
2022/12/20 11:34:39;;;;;;;;;8.20;5.00;;;;;11.51;75.33;100602.41;5010307;28;51685;-59
2022/12/20 11:37:18;;;;;;;;;2.60;1.40;;;;;11.73;75.36;100632.25;5030042;28;45781;-59
2022/12/20 11:39:55;;;;;;;;;4.80;4.80;;;;;11.61;75.37;100615.66;5030148;28;45529;-60